Weather at Minas Airport [CLOSED]

Public forecast

Using degrees Celsius for public forecast. Weather courtesy of forecast.io.

Closest aviation weather report (METAR) to Minas Airport

Closest report is Ignacio Agramonte International Airport, 18.3 nm (33.8 km) WSW.

2022/11/30 15:50 (retrieved 1 hour ago)

MUCM 301550Z 07012KT 040V110 9000 SCT018 30/21 Q1017

Closest aviation forecast (TAF) to Minas Airport

Closest forecast is Ignacio Agramonte International Airport, 18.3 nm (33.8 km) WSW.

2022/11/30 12:06 (retrieved 5 hours ago)

TAF MUCM 301100Z 3012/0112 VRB03KT 9000 SCT020 BECMG 3015/3017 05010KT BECMG 0101/0103 VRB03KT